Fairfield, ME (04937)

4:11 PM EDT on May 27, 2015 (GMT -0400)
Mayflower Hill | | Change Station
CLOSE
Current Station
Personal Weather Station
Location: Waterville, ME
Elevation: 292 ft
Nearby Weather Stations

Elev 292 ft 44.56 °N, 69.66 °W | Updated 9 minutes ago

Clear
Clear
83.9 °F
Feels Like 85 °F
N
11.2
Wind Variable Wind from SSW
Gusts 18.1 mph

Today
High -- | Low -- °F
--% Chance of Precip.
Yesterday
High -- | Low -- °F
Precip. -- in
4:59 AM 8:12 PM
Waxing Gibbous, 69% visible
Pressure 29.95 in
Visibility 10.0 miles
Clouds Clear
Heat Index 85 °F
Dew Point 65 °F
Humidity 48%
Rainfall -999.00 in
Snow Depth Not available.
UV 6 out of 12
Pollen 9.30 out of 12
Air Quality Not available.
Flu Activity Local Activity
METAR KWVL 271955Z 19005KT 10SM CLR 28/19 A2995 RMK AO1

More Conditions Fewer Conditions

Pressure 29.95 in
Visibility 10.0 miles
Clouds Clear
Heat Index 85 °F
Dew Point 65 °F
Humidity 48%
Rainfall -999.00 in
Snow Depth Not available.
UV 6 out of 12
Pollen 9.30 out of 12
Air Quality Not available.
Flu Activity Local Activity
METAR KWVL 271955Z 19005KT 10SM CLR 28/19 A2995 RMK AO1

More Conditions Fewer Conditions

10-Day Weather Forecast

Almanac

Astronomy

May. 27, 2015 Rise Set
Actual Time
Civil Twilight
Nautical Twilight
Astronomical Twilight
Moon
Length of Visible Light
Length of Day
Tomorrow will be .
, % of the Moon is Illuminated

Today's Extremes

State Highs State Lows

Community

WunderPhotos

Upload Photos

1,824,777 photos uploaded!

WunderBlogs® & News

Nearby

Air Quality

  Air Quality AQ Index Pollutant
Not available.

Snow Depth

Station Depth Elevation

Earthquake Activity

City Distance Mag. Time & Date
Minimum magnitude displayed is 2.5.

Coastal Water Temperatures

Place Temperature

Stations

Nearby Weather Stations

Station Location Temp. Windchill Dew Point Humidity Wind Precip. Elev Updated Type